sensor_id;sensor_type;location;lat;lon;timestamp;temperature;humidity
25154;DHT22;47555;51.038;6.280;2023-04-25T00:02:00;6.00;99.40
25154;DHT22;47555;51.038;6.280;2023-04-25T00:04:27;5.90;99.80
25154;DHT22;47555;51.038;6.280;2023-04-25T00:06:53;5.90;99.90
25154;DHT22;47555;51.038;6.280;2023-04-25T00:09:19;5.80;99.90
25154;DHT22;47555;51.038;6.280;2023-04-25T00:11:46;5.80;99.90
25154;DHT22;47555;51.038;6.280;2023-04-25T00:14:11;5.70;99.90
25154;DHT22;47555;51.038;6.280;2023-04-25T00:16:37;5.70;99.90
25154;DHT22;47555;51.038;6.280;2023-04-25T00:19:02;5.50;99.90
25154;DHT22;47555;51.038;6.280;2023-04-25T00:21:28;5.50;99.90
25154;DHT22;47555;51.038;6.280;2023-04-25T00:23:55;5.40;99.90
25154;DHT22;47555;51.038;6.280;2023-04-25T00:26:20;5.30;99.90
25154;DHT22;47555;51.038;6.280;2023-04-25T00:28:47;5.30;99.90
25154;DHT22;47555;51.038;6.280;2023-04-25T00:31:12;5.20;99.90
25154;DHT22;47555;51.038;6.280;2023-04-25T00:33:38;5.20;99.90
25154;DHT22;47555;51.038;6.280;2023-04-25T00:36:04;5.20;99.90
25154;DHT22;47555;51.038;6.280;2023-04-25T00:38:30;5.20;99.90
25154;DHT22;47555;51.038;6.280;2023-04-25T00:40:55;5.20;99.90
25154;DHT22;47555;51.038;6.280;2023-04-25T00:43:21;5.10;99.90
25154;DHT22;47555;51.038;6.280;2023-04-25T00:45:47;5.10;99.90
25154;DHT22;47555;51.038;6.280;2023-04-25T00:48:17;5.10;99.90
25154;DHT22;47555;51.038;6.280;2023-04-25T00:50:53;5.00;99.90
25154;DHT22;47555;51.038;6.280;2023-04-25T00:53:20;5.00;99.90
25154;DHT22;47555;51.038;6.280;2023-04-25T00:55:46;4.90;99.90
25154;DHT22;47555;51.038;6.280;2023-04-25T00:58:11;4.90;99.90
25154;DHT22;47555;51.038;6.280;2023-04-25T01:00:37;4.90;99.90
25154;DHT22;47555;51.038;6.280;2023-04-25T01:03:03;4.90;99.90
25154;DHT22;47555;51.038;6.280;2023-04-25T01:05:29;4.80;99.90
25154;DHT22;47555;51.038;6.280;2023-04-25T01:07:54;4.80;99.90
25154;DHT22;47555;51.038;6.280;2023-04-25T01:10:20;4.80;99.90
25154;DHT22;47555;51.038;6.280;2023-04-25T01:12:46;4.70;99.90
25154;DHT22;47555;51.038;6.280;2023-04-25T01:15:12;4.70;99.90
25154;DHT22;47555;51.038;6.280;2023-04-25T01:17:38;4.70;99.90
25154;DHT22;47555;51.038;6.280;2023-04-25T01:20:05;4.70;99.90
25154;DHT22;47555;51.038;6.280;2023-04-25T01:22:32;4.60;99.90
25154;DHT22;47555;51.038;6.280;2023-04-25T01:25:00;4.60;99.90
25154;DHT22;47555;51.038;6.280;2023-04-25T01:27:26;4.60;99.90
25154;DHT22;47555;51.038;6.280;2023-04-25T01:29:54;4.60;99.90
25154;DHT22;47555;51.038;6.280;2023-04-25T01:32:22;4.60;99.90
25154;DHT22;47555;51.038;6.280;2023-04-25T01:34:47;4.60;99.90
25154;DHT22;47555;51.038;6.280;2023-04-25T01:37:13;4.60;99.90
25154;DHT22;47555;51.038;6.280;2023-04-25T01:39:38;4.60;99.90
25154;DHT22;47555;51.038;6.280;2023-04-25T01:42:04;4.60;99.90
25154;DHT22;47555;51.038;6.280;2023-04-25T01:44:30;4.50;99.90
25154;DHT22;47555;51.038;6.280;2023-04-25T01:46:55;4.50;99.90
25154;DHT22;47555;51.038;6.280;2023-04-25T01:49:21;4.50;99.90
25154;DHT22;47555;51.038;6.280;2023-04-25T01:51:46;4.50;99.90
25154;DHT22;47555;51.038;6.280;2023-04-25T01:54:15;4.50;99.90
25154;DHT22;47555;51.038;6.280;2023-04-25T01:56:40;4.40;99.90
25154;DHT22;47555;51.038;6.280;2023-04-25T01:59:06;4.40;99.90
25154;DHT22;47555;51.038;6.280;2023-04-25T02:01:32;4.40;99.90
25154;DHT22;47555;51.038;6.280;2023-04-25T02:03:57;4.50;99.90
25154;DHT22;47555;51.038;6.280;2023-04-25T02:06:23;4.40;99.90
25154;DHT22;47555;51.038;6.280;2023-04-25T02:08:48;4.50;99.90
25154;DHT22;47555;51.038;6.280;2023-04-25T02:11:14;4.50;99.90
25154;DHT22;47555;51.038;6.280;2023-04-25T02:13:40;4.60;99.90
25154;DHT22;47555;51.038;6.280;2023-04-25T02:16:05;4.60;99.90
25154;DHT22;47555;51.038;6.280;2023-04-25T02:18:31;4.60;99.90
25154;DHT22;47555;51.038;6.280;2023-04-25T02:20:58;4.60;99.90
25154;DHT22;47555;51.038;6.280;2023-04-25T02:23:24;4.60;99.90
25154;DHT22;47555;51.038;6.280;2023-04-25T02:25:50;4.60;99.90
25154;DHT22;47555;51.038;6.280;2023-04-25T02:28:16;4.60;99.90
25154;DHT22;47555;51.038;6.280;2023-04-25T02:30:41;4.60;99.90
25154;DHT22;47555;51.038;6.280;2023-04-25T02:33:07;4.60;99.90
25154;DHT22;47555;51.038;6.280;2023-04-25T02:35:32;4.60;99.90
25154;DHT22;47555;51.038;6.280;2023-04-25T02:37:58;4.60;99.90
25154;DHT22;47555;51.038;6.280;2023-04-25T02:40:24;4.60;99.90
25154;DHT22;47555;51.038;6.280;2023-04-25T02:42:49;4.70;99.90
25154;DHT22;47555;51.038;6.280;2023-04-25T02:45:15;4.70;99.90
25154;DHT22;47555;51.038;6.280;2023-04-25T02:47:40;4.60;99.90
25154;DHT22;47555;51.038;6.280;2023-04-25T02:50:06;4.70;99.90
25154;DHT22;47555;51.038;6.280;2023-04-25T02:52:32;4.70;99.90
25154;DHT22;47555;51.038;6.280;2023-04-25T02:54:58;4.70;99.90
25154;DHT22;47555;51.038;6.280;2023-04-25T02:57:23;4.70;99.90
25154;DHT22;47555;51.038;6.280;2023-04-25T02:59:49;4.80;99.90
25154;DHT22;47555;51.038;6.280;2023-04-25T03:02:14;4.80;99.90
25154;DHT22;47555;51.038;6.280;2023-04-25T03:04:40;4.80;99.90
25154;DHT22;47555;51.038;6.280;2023-04-25T03:07:06;4.90;99.90
25154;DHT22;47555;51.038;6.280;2023-04-25T03:09:32;4.90;99.90
25154;DHT22;47555;51.038;6.280;2023-04-25T03:11:57;4.90;99.90
25154;DHT22;47555;51.038;6.280;2023-04-25T03:14:23;4.90;99.90
25154;DHT22;47555;51.038;6.280;2023-04-25T03:16:48;5.00;99.90
25154;DHT22;47555;51.038;6.280;2023-04-25T03:19:14;5.00;99.90
25154;DHT22;47555;51.038;6.280;2023-04-25T03:21:42;5.00;99.90
25154;DHT22;47555;51.038;6.280;2023-04-25T03:24:08;5.00;99.90
25154;DHT22;47555;51.038;6.280;2023-04-25T03:26:34;5.10;99.90
25154;DHT22;47555;51.038;6.280;2023-04-25T03:28:59;5.10;99.90
25154;DHT22;47555;51.038;6.280;2023-04-25T03:31:25;5.10;99.90
25154;DHT22;47555;51.038;6.280;2023-04-25T03:33:51;5.10;99.90
25154;DHT22;47555;51.038;6.280;2023-04-25T03:36:16;5.10;99.90
25154;DHT22;47555;51.038;6.280;2023-04-25T03:38:42;5.20;99.90
25154;DHT22;47555;51.038;6.280;2023-04-25T03:41:08;5.20;99.90
25154;DHT22;47555;51.038;6.280;2023-04-25T03:43:33;5.20;99.90
25154;DHT22;47555;51.038;6.280;2023-04-25T03:45:59;5.20;99.90
25154;DHT22;47555;51.038;6.280;2023-04-25T03:48:26;5.20;99.90
25154;DHT22;47555;51.038;6.280;2023-04-25T03:50:52;5.10;99.90
25154;DHT22;47555;51.038;6.280;2023-04-25T03:53:18;5.20;99.90
25154;DHT22;47555;51.038;6.280;2023-04-25T03:55:43;5.10;99.90
25154;DHT22;47555;51.038;6.280;2023-04-25T03:58:09;5.10;99.90
25154;DHT22;47555;51.038;6.280;2023-04-25T04:00:35;5.10;99.90
25154;DHT22;47555;51.038;6.280;2023-04-25T04:03:00;5.20;99.90
25154;DHT22;47555;51.038;6.280;2023-04-25T04:05:26;5.20;99.90
25154;DHT22;47555;51.038;6.280;2023-04-25T04:07:52;5.20;99.90
25154;DHT22;47555;51.038;6.280;2023-04-25T04:10:18;5.20;99.90
25154;DHT22;47555;51.038;6.280;2023-04-25T04:12:43;5.20;99.90
25154;DHT22;47555;51.038;6.280;2023-04-25T04:15:09;5.20;99.90
25154;DHT22;47555;51.038;6.280;2023-04-25T04:17:35;5.20;99.90
25154;DHT22;47555;51.038;6.280;2023-04-25T04:20:01;5.20;99.90
25154;DHT22;47555;51.038;6.280;2023-04-25T04:22:28;5.20;99.90
25154;DHT22;47555;51.038;6.280;2023-04-25T04:24:57;5.20;99.90
25154;DHT22;47555;51.038;6.280;2023-04-25T04:27:23;5.20;99.90
25154;DHT22;47555;51.038;6.280;2023-04-25T04:29:48;5.30;99.90
25154;DHT22;47555;51.038;6.280;2023-04-25T04:32:15;5.30;99.90
25154;DHT22;47555;51.038;6.280;2023-04-25T04:34:41;5.30;99.90
25154;DHT22;47555;51.038;6.280;2023-04-25T04:37:07;5.30;99.90
25154;DHT22;47555;51.038;6.280;2023-04-25T04:39:36;5.30;99.90
25154;DHT22;47555;51.038;6.280;2023-04-25T04:42:02;5.30;99.90
25154;DHT22;47555;51.038;6.280;2023-04-25T04:44:29;5.30;99.90
25154;DHT22;47555;51.038;6.280;2023-04-25T04:46:58;5.40;99.90
25154;DHT22;47555;51.038;6.280;2023-04-25T04:49:23;5.40;99.90
25154;DHT22;47555;51.038;6.280;2023-04-25T04:51:49;5.40;99.90
25154;DHT22;47555;51.038;6.280;2023-04-25T04:54:15;5.40;99.90
25154;DHT22;47555;51.038;6.280;2023-04-25T04:56:40;5.40;99.90
25154;DHT22;47555;51.038;6.280;2023-04-25T04:59:07;5.40;99.90
25154;DHT22;47555;51.038;6.280;2023-04-25T05:01:32;5.40;99.90
25154;DHT22;47555;51.038;6.280;2023-04-25T05:04:00;5.50;99.90
25154;DHT22;47555;51.038;6.280;2023-04-25T05:06:27;5.60;99.90
25154;DHT22;47555;51.038;6.280;2023-04-25T05:08:54;5.60;99.90
25154;DHT22;47555;51.038;6.280;2023-04-25T05:11:19;5.60;99.90
25154;DHT22;47555;51.038;6.280;2023-04-25T05:13:46;5.60;99.90
25154;DHT22;47555;51.038;6.280;2023-04-25T05:16:12;5.60;99.90
25154;DHT22;47555;51.038;6.280;2023-04-25T05:18:39;5.70;99.90
25154;DHT22;47555;51.038;6.280;2023-04-25T05:21:04;5.70;99.90
25154;DHT22;47555;51.038;6.280;2023-04-25T05:23:31;5.80;99.90
25154;DHT22;47555;51.038;6.280;2023-04-25T05:25:57;5.80;99.90
25154;DHT22;47555;51.038;6.280;2023-04-25T05:28:23;5.90;99.90
25154;DHT22;47555;51.038;6.280;2023-04-25T05:30:48;5.90;99.90
25154;DHT22;47555;51.038;6.280;2023-04-25T05:33:15;6.00;99.90
25154;DHT22;47555;51.038;6.280;2023-04-25T05:35:40;6.00;99.90
25154;DHT22;47555;51.038;6.280;2023-04-25T05:38:06;6.10;99.90
25154;DHT22;47555;51.038;6.280;2023-04-25T05:40:32;6.20;99.90
25154;DHT22;47555;51.038;6.280;2023-04-25T05:42:57;6.30;99.90
25154;DHT22;47555;51.038;6.280;2023-04-25T05:45:23;6.30;99.90
25154;DHT22;47555;51.038;6.280;2023-04-25T05:47:48;6.40;99.90
25154;DHT22;47555;51.038;6.280;2023-04-25T05:50:14;6.50;99.90
25154;DHT22;47555;51.038;6.280;2023-04-25T05:52:39;6.60;99.90
25154;DHT22;47555;51.038;6.280;2023-04-25T05:55:05;6.60;99.90
25154;DHT22;47555;51.038;6.280;2023-04-25T05:57:31;6.70;99.90
25154;DHT22;47555;51.038;6.280;2023-04-25T05:59:57;6.80;99.90
25154;DHT22;47555;51.038;6.280;2023-04-25T06:02:22;6.90;99.90
25154;DHT22;47555;51.038;6.280;2023-04-25T06:04:50;7.00;99.90
25154;DHT22;47555;51.038;6.280;2023-04-25T06:07:16;7.10;99.90
25154;DHT22;47555;51.038;6.280;2023-04-25T06:09:42;7.20;99.90
25154;DHT22;47555;51.038;6.280;2023-04-25T06:12:07;7.30;99.90
25154;DHT22;47555;51.038;6.280;2023-04-25T06:14:33;7.30;99.90
25154;DHT22;47555;51.038;6.280;2023-04-25T06:16:59;7.30;98.80
25154;DHT22;47555;51.038;6.280;2023-04-25T06:19:25;7.40;97.20
25154;DHT22;47555;51.038;6.280;2023-04-25T06:21:50;7.40;95.70
25154;DHT22;47555;51.038;6.280;2023-04-25T06:24:16;7.40;96.40
25154;DHT22;47555;51.038;6.280;2023-04-25T06:26:41;7.40;95.80
25154;DHT22;47555;51.038;6.280;2023-04-25T06:29:07;7.30;96.30
25154;DHT22;47555;51.038;6.280;2023-04-25T06:31:32;7.50;96.60
25154;DHT22;47555;51.038;6.280;2023-04-25T06:34:00;7.50;96.70
25154;DHT22;47555;51.038;6.280;2023-04-25T06:36:25;7.60;95.20
25154;DHT22;47555;51.038;6.280;2023-04-25T06:38:53;7.70;94.20
25154;DHT22;47555;51.038;6.280;2023-04-25T06:41:18;7.80;91.70
25154;DHT22;47555;51.038;6.280;2023-04-25T06:43:44;7.90;92.90
25154;DHT22;47555;51.038;6.280;2023-04-25T06:46:10;7.90;92.40
25154;DHT22;47555;51.038;6.280;2023-04-25T06:48:35;7.90;90.20
25154;DHT22;47555;51.038;6.280;2023-04-25T06:51:01;7.80;88.70
25154;DHT22;47555;51.038;6.280;2023-04-25T06:53:26;7.80;89.90
25154;DHT22;47555;51.038;6.280;2023-04-25T06:55:52;7.70;88.90
25154;DHT22;47555;51.038;6.280;2023-04-25T06:58:18;7.70;89.10
25154;DHT22;47555;51.038;6.280;2023-04-25T07:00:43;7.70;90.70
25154;DHT22;47555;51.038;6.280;2023-04-25T07:03:09;7.80;90.50
25154;DHT22;47555;51.038;6.280;2023-04-25T07:05:35;7.80;90.10
25154;DHT22;47555;51.038;6.280;2023-04-25T07:08:01;7.90;88.30
25154;DHT22;47555;51.038;6.280;2023-04-25T07:10:27;7.90;89.90
25154;DHT22;47555;51.038;6.280;2023-04-25T07:12:52;8.00;89.40
25154;DHT22;47555;51.038;6.280;2023-04-25T07:15:18;8.00;89.60
25154;DHT22;47555;51.038;6.280;2023-04-25T07:17:43;8.20;89.10
25154;DHT22;47555;51.038;6.280;2023-04-25T07:20:09;8.20;89.00
25154;DHT22;47555;51.038;6.280;2023-04-25T07:22:35;8.30;87.40
25154;DHT22;47555;51.038;6.280;2023-04-25T07:25:01;8.40;85.80
25154;DHT22;47555;51.038;6.280;2023-04-25T07:27:26;8.50;86.70
25154;DHT22;47555;51.038;6.280;2023-04-25T07:29:52;8.60;83.20
25154;DHT22;47555;51.038;6.280;2023-04-25T07:32:18;8.60;80.70
25154;DHT22;47555;51.038;6.280;2023-04-25T07:34:43;8.80;79.30
25154;DHT22;47555;51.038;6.280;2023-04-25T07:37:09;8.80;77.40
25154;DHT22;47555;51.038;6.280;2023-04-25T07:39:34;8.90;80.00
25154;DHT22;47555;51.038;6.280;2023-04-25T07:42:01;9.00;76.70
25154;DHT22;47555;51.038;6.280;2023-04-25T07:44:27;9.00;72.30
25154;DHT22;47555;51.038;6.280;2023-04-25T07:46:53;9.20;73.60
25154;DHT22;47555;51.038;6.280;2023-04-25T07:49:18;9.30;75.90
25154;DHT22;47555;51.038;6.280;2023-04-25T07:51:44;9.40;71.60
25154;DHT22;47555;51.038;6.280;2023-04-25T07:54:12;9.40;68.40
25154;DHT22;47555;51.038;6.280;2023-04-25T07:56:37;9.30;59.20
25154;DHT22;47555;51.038;6.280;2023-04-25T07:59:03;9.30;61.00
25154;DHT22;47555;51.038;6.280;2023-04-25T08:01:28;9.30;66.80
25154;DHT22;47555;51.038;6.280;2023-04-25T08:03:54;9.30;71.80
25154;DHT22;47555;51.038;6.280;2023-04-25T08:06:19;9.30;70.10
25154;DHT22;47555;51.038;6.280;2023-04-25T08:08:45;9.30;67.10
25154;DHT22;47555;51.038;6.280;2023-04-25T08:11:11;9.40;71.90
25154;DHT22;47555;51.038;6.280;2023-04-25T08:13:36;9.50;73.20
25154;DHT22;47555;51.038;6.280;2023-04-25T08:16:02;9.60;69.20
25154;DHT22;47555;51.038;6.280;2023-04-25T08:18:28;9.60;68.40
25154;DHT22;47555;51.038;6.280;2023-04-25T08:20:53;9.70;69.20
25154;DHT22;47555;51.038;6.280;2023-04-25T08:23:19;9.70;71.90
25154;DHT22;47555;51.038;6.280;2023-04-25T08:25:44;9.80;68.60
25154;DHT22;47555;51.038;6.280;2023-04-25T08:28:10;9.90;69.50
25154;DHT22;47555;51.038;6.280;2023-04-25T08:30:36;10.10;67.40
25154;DHT22;47555;51.038;6.280;2023-04-25T08:33:02;10.10;60.70
25154;DHT22;47555;51.038;6.280;2023-04-25T08:35:28;10.20;62.60
25154;DHT22;47555;51.038;6.280;2023-04-25T08:37:53;10.30;64.60
25154;DHT22;47555;51.038;6.280;2023-04-25T08:40:19;10.30;51.10
25154;DHT22;47555;51.038;6.280;2023-04-25T08:42:52;10.30;53.80
25154;DHT22;47555;51.038;6.280;2023-04-25T08:45:18;10.20;51.50
25154;DHT22;47555;51.038;6.280;2023-04-25T08:47:45;10.10;53.60
25154;DHT22;47555;51.038;6.280;2023-04-25T08:50:11;10.00;56.90
25154;DHT22;47555;51.038;6.280;2023-04-25T08:52:43;9.90;59.50
25154;DHT22;47555;51.038;6.280;2023-04-25T08:55:09;9.90;60.40
25154;DHT22;47555;51.038;6.280;2023-04-25T08:57:35;10.00;62.90
25154;DHT22;47555;51.038;6.280;2023-04-25T09:00:01;10.00;60.10
25154;DHT22;47555;51.038;6.280;2023-04-25T09:02:27;10.20;59.50
25154;DHT22;47555;51.038;6.280;2023-04-25T09:04:54;10.30;57.90
25154;DHT22;47555;51.038;6.280;2023-04-25T09:07:20;10.30;54.90
25154;DHT22;47555;51.038;6.280;2023-04-25T09:09:46;10.40;58.60
25154;DHT22;47555;51.038;6.280;2023-04-25T09:12:12;10.50;55.90
25154;DHT22;47555;51.038;6.280;2023-04-25T09:14:38;10.60;53.60
25154;DHT22;47555;51.038;6.280;2023-04-25T09:17:04;10.70;56.80
25154;DHT22;47555;51.038;6.280;2023-04-25T09:19:34;10.60;52.20
25154;DHT22;47555;51.038;6.280;2023-04-25T09:22:02;10.60;51.60
25154;DHT22;47555;51.038;6.280;2023-04-25T09:27:26;11.30;57.60
25154;DHT22;47555;51.038;6.280;2023-04-25T09:29:57;12.00;52.30
25154;DHT22;47555;51.038;6.280;2023-04-25T09:32:24;12.40;43.30
25154;DHT22;47555;51.038;6.280;2023-04-25T09:34:52;12.40;39.00
25154;DHT22;47555;51.038;6.280;2023-04-25T09:39:53;11.90;37.20
25154;DHT22;47555;51.038;6.280;2023-04-25T09:42:25;11.50;38.00
25154;DHT22;47555;51.038;6.280;2023-04-25T09:44:53;11.30;40.00
25154;DHT22;47555;51.038;6.280;2023-04-25T09:47:19;11.20;40.40
25154;DHT22;47555;51.038;6.280;2023-04-25T09:49:47;11.30;45.60
25154;DHT22;47555;51.038;6.280;2023-04-25T09:52:24;11.40;44.40
25154;DHT22;47555;51.038;6.280;2023-04-25T09:54:50;11.40;44.30
25154;DHT22;47555;51.038;6.280;2023-04-25T09:57:23;11.40;40.90
25154;DHT22;47555;51.038;6.280;2023-04-25T09:59:51;11.20;41.10
25154;DHT22;47555;51.038;6.280;2023-04-25T10:02:19;11.10;41.60
25154;DHT22;47555;51.038;6.280;2023-04-25T10:04:49;10.90;43.10
25154;DHT22;47555;51.038;6.280;2023-04-25T10:07:15;10.80;44.90
25154;DHT22;47555;51.038;6.280;2023-04-25T10:09:42;10.70;42.30
25154;DHT22;47555;51.038;6.280;2023-04-25T10:12:09;10.60;41.90
25154;DHT22;47555;51.038;6.280;2023-04-25T10:14:35;10.60;42.10
25154;DHT22;47555;51.038;6.280;2023-04-25T10:17:01;10.70;43.80
25154;DHT22;47555;51.038;6.280;2023-04-25T10:19:27;10.80;44.90
25154;DHT22;47555;51.038;6.280;2023-04-25T10:22:17;11.10;45.00
25154;DHT22;47555;51.038;6.280;2023-04-25T10:24:44;11.50;43.20
25154;DHT22;47555;51.038;6.280;2023-04-25T10:27:11;12.00;45.50
25154;DHT22;47555;51.038;6.280;2023-04-25T10:29:37;12.40;45.40
25154;DHT22;47555;51.038;6.280;2023-04-25T10:32:03;12.80;38.50
25154;DHT22;47555;51.038;6.280;2023-04-25T10:34:39;12.90;36.40
25154;DHT22;47555;51.038;6.280;2023-04-25T10:37:05;13.00;37.60
25154;DHT22;47555;51.038;6.280;2023-04-25T10:39:33;13.00;37.80
25154;DHT22;47555;51.038;6.280;2023-04-25T10:42:02;12.90;35.80
25154;DHT22;47555;51.038;6.280;2023-04-25T10:44:31;12.70;29.80
25154;DHT22;47555;51.038;6.280;2023-04-25T10:46:58;12.60;33.30
25154;DHT22;47555;51.038;6.280;2023-04-25T10:49:35;12.50;34.40
25154;DHT22;47555;51.038;6.280;2023-04-25T10:52:16;12.50;36.00
25154;DHT22;47555;51.038;6.280;2023-04-25T10:54:44;12.40;35.90
25154;DHT22;47555;51.038;6.280;2023-04-25T10:59:51;12.30;34.60
25154;DHT22;47555;51.038;6.280;2023-04-25T11:02:17;12.30;35.80
25154;DHT22;47555;51.038;6.280;2023-04-25T11:04:44;12.30;34.70
25154;DHT22;47555;51.038;6.280;2023-04-25T11:07:23;12.20;33.60
25154;DHT22;47555;51.038;6.280;2023-04-25T11:09:51;12.10;33.40
25154;DHT22;47555;51.038;6.280;2023-04-25T11:12:17;12.00;33.90
25154;DHT22;47555;51.038;6.280;2023-04-25T11:14:43;11.90;35.00
25154;DHT22;47555;51.038;6.280;2023-04-25T11:17:09;11.90;35.00
25154;DHT22;47555;51.038;6.280;2023-04-25T11:19:35;12.00;34.70
25154;DHT22;47555;51.038;6.280;2023-04-25T11:22:02;12.30;36.50
25154;DHT22;47555;51.038;6.280;2023-04-25T11:26:53;12.80;35.50
25154;DHT22;47555;51.038;6.280;2023-04-25T11:29:22;13.10;33.90
25154;DHT22;47555;51.038;6.280;2023-04-25T11:31:48;13.20;33.90
25154;DHT22;47555;51.038;6.280;2023-04-25T11:34:18;13.20;31.80
25154;DHT22;47555;51.038;6.280;2023-04-25T11:36:45;13.10;33.00
25154;DHT22;47555;51.038;6.280;2023-04-25T11:39:10;13.10;32.90
25154;DHT22;47555;51.038;6.280;2023-04-25T11:41:37;13.00;31.80
25154;DHT22;47555;51.038;6.280;2023-04-25T11:44:03;13.10;31.90
25154;DHT22;47555;51.038;6.280;2023-04-25T11:46:29;13.30;33.60
25154;DHT22;47555;51.038;6.280;2023-04-25T11:48:55;13.60;33.10
25154;DHT22;47555;51.038;6.280;2023-04-25T11:51:21;14.10;33.30
25154;DHT22;47555;51.038;6.280;2023-04-25T11:53:47;14.30;32.00
25154;DHT22;47555;51.038;6.280;2023-04-25T11:56:13;14.10;29.70
25154;DHT22;47555;51.038;6.280;2023-04-25T11:58:58;13.70;31.70
25154;DHT22;47555;51.038;6.280;2023-04-25T12:01:28;13.20;30.90
25154;DHT22;47555;51.038;6.280;2023-04-25T12:03:55;12.60;33.90
25154;DHT22;47555;51.038;6.280;2023-04-25T12:06:21;12.00;35.60
25154;DHT22;47555;51.038;6.280;2023-04-25T12:09:07;11.50;37.10
25154;DHT22;47555;51.038;6.280;2023-04-25T12:11:41;11.00;38.40
25154;DHT22;47555;51.038;6.280;2023-04-25T12:14:06;10.60;39.50
25154;DHT22;47555;51.038;6.280;2023-04-25T12:16:45;10.30;42.90
25154;DHT22;47555;51.038;6.280;2023-04-25T12:19:14;10.10;43.80
25154;DHT22;47555;51.038;6.280;2023-04-25T12:21:40;10.10;45.30
25154;DHT22;47555;51.038;6.280;2023-04-25T12:24:21;10.20;44.30
25154;DHT22;47555;51.038;6.280;2023-04-25T12:26:53;10.50;45.10
25154;DHT22;47555;51.038;6.280;2023-04-25T12:29:21;11.00;46.70
25154;DHT22;47555;51.038;6.280;2023-04-25T12:31:47;11.50;44.30
25154;DHT22;47555;51.038;6.280;2023-04-25T12:34:13;11.90;42.30
25154;DHT22;47555;51.038;6.280;2023-04-25T12:36:39;12.00;38.50
25154;DHT22;47555;51.038;6.280;2023-04-25T12:39:05;12.10;40.40
25154;DHT22;47555;51.038;6.280;2023-04-25T12:41:31;12.50;43.00
25154;DHT22;47555;51.038;6.280;2023-04-25T12:43:56;12.90;44.70
25154;DHT22;47555;51.038;6.280;2023-04-25T12:46:22;13.30;42.50
25154;DHT22;47555;51.038;6.280;2023-04-25T12:48:50;13.80;39.80
25154;DHT22;47555;51.038;6.280;2023-04-25T12:51:16;14.20;33.60
25154;DHT22;47555;51.038;6.280;2023-04-25T12:53:41;14.50;35.10
25154;DHT22;47555;51.038;6.280;2023-04-25T12:56:10;14.70;33.40
25154;DHT22;47555;51.038;6.280;2023-04-25T12:58:36;14.80;34.60
25154;DHT22;47555;51.038;6.280;2023-04-25T13:01:01;14.80;35.20
25154;DHT22;47555;51.038;6.280;2023-04-25T13:03:27;15.10;35.30
25154;DHT22;47555;51.038;6.280;2023-04-25T13:05:52;15.00;31.70
25154;DHT22;47555;51.038;6.280;2023-04-25T13:08:21;14.90;33.30
25154;DHT22;47555;51.038;6.280;2023-04-25T13:10:47;15.00;32.30
25154;DHT22;47555;51.038;6.280;2023-04-25T13:13:13;15.00;34.30
25154;DHT22;47555;51.038;6.280;2023-04-25T13:15:38;15.00;34.50
25154;DHT22;47555;51.038;6.280;2023-04-25T13:18:04;14.90;30.10
25154;DHT22;47555;51.038;6.280;2023-04-25T13:20:33;14.60;29.20
25154;DHT22;47555;51.038;6.280;2023-04-25T13:22:58;14.10;29.60
25154;DHT22;47555;51.038;6.280;2023-04-25T13:25:24;13.60;31.90
25154;DHT22;47555;51.038;6.280;2023-04-25T13:27:50;13.20;32.70
25154;DHT22;47555;51.038;6.280;2023-04-25T13:30:16;12.80;33.50
25154;DHT22;47555;51.038;6.280;2023-04-25T13:32:41;12.30;34.00
25154;DHT22;47555;51.038;6.280;2023-04-25T13:35:09;12.00;34.80
25154;DHT22;47555;51.038;6.280;2023-04-25T13:37:35;11.70;35.60
25154;DHT22;47555;51.038;6.280;2023-04-25T13:40:09;11.30;36.10
25154;DHT22;47555;51.038;6.280;2023-04-25T13:42:35;11.10;36.40
25154;DHT22;47555;51.038;6.280;2023-04-25T13:45:01;10.90;36.70
25154;DHT22;47555;51.038;6.280;2023-04-25T13:47:28;10.90;37.50
25154;DHT22;47555;51.038;6.280;2023-04-25T13:49:54;10.80;38.20
25154;DHT22;47555;51.038;6.280;2023-04-25T13:52:20;10.70;37.90
25154;DHT22;47555;51.038;6.280;2023-04-25T13:54:45;10.60;37.00
25154;DHT22;47555;51.038;6.280;2023-04-25T13:57:11;10.60;36.70
25154;DHT22;47555;51.038;6.280;2023-04-25T13:59:37;10.60;37.90
25154;DHT22;47555;51.038;6.280;2023-04-25T14:02:03;10.80;37.70
25154;DHT22;47555;51.038;6.280;2023-04-25T14:04:28;11.00;37.40
25154;DHT22;47555;51.038;6.280;2023-04-25T14:06:55;11.30;35.70
25154;DHT22;47555;51.038;6.280;2023-04-25T14:09:20;11.60;37.50
25154;DHT22;47555;51.038;6.280;2023-04-25T14:11:51;11.70;35.00
25154;DHT22;47555;51.038;6.280;2023-04-25T14:14:17;11.70;37.10
25154;DHT22;47555;51.038;6.280;2023-04-25T14:16:43;11.90;35.10
25154;DHT22;47555;51.038;6.280;2023-04-25T14:19:09;12.10;37.00
25154;DHT22;47555;51.038;6.280;2023-04-25T14:21:34;12.30;34.70
25154;DHT22;47555;51.038;6.280;2023-04-25T14:24:00;12.40;34.50
25154;DHT22;47555;51.038;6.280;2023-04-25T14:26:26;12.50;31.70
25154;DHT22;47555;51.038;6.280;2023-04-25T14:28:52;12.50;33.50
25154;DHT22;47555;51.038;6.280;2023-04-25T14:31:17;12.70;31.40
25154;DHT22;47555;51.038;6.280;2023-04-25T14:33:43;12.80;31.40
25154;DHT22;47555;51.038;6.280;2023-04-25T14:36:09;12.90;29.90
25154;DHT22;47555;51.038;6.280;2023-04-25T14:38:34;12.90;30.90
25154;DHT22;47555;51.038;6.280;2023-04-25T14:41:00;13.00;30.40
25154;DHT22;47555;51.038;6.280;2023-04-25T14:43:25;13.00;29.30
25154;DHT22;47555;51.038;6.280;2023-04-25T14:45:51;13.20;29.20
25154;DHT22;47555;51.038;6.280;2023-04-25T14:48:17;13.40;30.80
25154;DHT22;47555;51.038;6.280;2023-04-25T14:50:45;13.60;33.00
25154;DHT22;47555;51.038;6.280;2023-04-25T14:53:10;13.60;30.10
25154;DHT22;47555;51.038;6.280;2023-04-25T14:55:36;13.40;30.40
25154;DHT22;47555;51.038;6.280;2023-04-25T14:58:01;13.20;30.50
25154;DHT22;47555;51.038;6.280;2023-04-25T15:00:27;13.00;29.80
25154;DHT22;47555;51.038;6.280;2023-04-25T15:02:53;12.70;28.10
25154;DHT22;47555;51.038;6.280;2023-04-25T15:05:18;12.30;28.20
25154;DHT22;47555;51.038;6.280;2023-04-25T15:07:44;12.00;27.30
25154;DHT22;47555;51.038;6.280;2023-04-25T15:10:10;11.70;31.00
25154;DHT22;47555;51.038;6.280;2023-04-25T15:12:45;11.60;31.40
25154;DHT22;47555;51.038;6.280;2023-04-25T15:15:11;11.50;33.40
25154;DHT22;47555;51.038;6.280;2023-04-25T15:17:41;11.70;33.20
25154;DHT22;47555;51.038;6.280;2023-04-25T15:20:11;11.90;33.00
25154;DHT22;47555;51.038;6.280;2023-04-25T15:22:41;12.00;31.10
25154;DHT22;47555;51.038;6.280;2023-04-25T15:25:08;12.10;32.90
25154;DHT22;47555;51.038;6.280;2023-04-25T15:27:35;12.10;30.80
25154;DHT22;47555;51.038;6.280;2023-04-25T15:30:06;12.10;30.00
25154;DHT22;47555;51.038;6.280;2023-04-25T15:32:33;12.00;28.20
25154;DHT22;47555;51.038;6.280;2023-04-25T15:34:59;12.00;31.40
25154;DHT22;47555;51.038;6.280;2023-04-25T15:37:25;12.00;32.50
25154;DHT22;47555;51.038;6.280;2023-04-25T15:42:45;12.40;35.60
25154;DHT22;47555;51.038;6.280;2023-04-25T15:45:19;12.50;35.60
25154;DHT22;47555;51.038;6.280;2023-04-25T15:47:44;12.70;33.00
25154;DHT22;47555;51.038;6.280;2023-04-25T15:50:12;12.70;31.80